PWSweather.com
Personal Weather Stations
Station Observations
CONLIG1
Conlig, Bangor Co DownGB BT23

ConligBangor Co DownGB BT23

Lat: 54.63399887, Lon: -5.671

Elevation: 166

Station Type: Davis Vantage Pro2 Plus

https://www.conligwx.org

Latest ConditionsUpdated 10:43:52 AM GMT Wednesday, Dec 12, 2018
Currently Today's Max Today's Min Today's Average
Temperature 48.0°F8.9°C 48.4°F9.1°C 47.1°F8.4°C 47.9°F8.8°C
Dew Point 45.9°F7.7°C 46.9°F8.3°C 45.1°F7.3°C 46.2°F7.9°C
Winds 4.0 mph SE6.4 kmh SE 4.9 mph -7.9 kmh - - 3.8 mph 6.1 kmh
Wind Gusts 15.0 mph24.1 kmh 21.0 mph33.8 kmh - -
Humidity 92% 95% 92% 94%
Pressure 29.94 in1013.9 mb 29.96 in1014.6 mb 29.93 in1013.5 mb -
Precipitation - 0.15 in3.8 mm - -
Hour Temp Dew Point Humidity Winds Wind Gusts Pressure Precip Precip Rate Daily Precip Total
10:43 AM 48.0°F8.9°C 45.9°F7.7°C 92% 4.0 mph SE6.4 kmh SE 15.0 mph24.1 kmh 29.94 in1013.9 mb 0.00 in0.0 mm 0.00 in0.0 mm 0.15 in3.8 mm
10:28 AM 48.2°F9.0°C 46.2°F7.9°C 93% 4.0 mph S6.4 kmh S 17.0 mph27.4 kmh 29.95 in1014.2 mb 0.00 in0.0 mm 0.00 in0.0 mm 0.15 in3.8 mm
10:13 AM 48.0°F8.9°C 46.0°F7.8°C 93% 4.9 mph S7.9 kmh S 12.1 mph19.5 kmh 29.94 in1013.9 mb 0.01 in0.3 mm 0.00 in0.0 mm 0.15 in3.8 mm
09:58 AM 48.0°F8.9°C 46.0°F7.8°C 93% 4.9 mph S7.9 kmh S 14.1 mph22.7 kmh 29.94 in1013.9 mb 0.01 in0.3 mm 0.00 in0.0 mm 0.15 in3.8 mm
09:43 AM 48.0°F8.9°C 46.4°F8.0°C 94% 4.0 mph SSE6.4 kmh SSE 14.1 mph22.7 kmh 29.94 in1013.9 mb 0.01 in0.3 mm 0.00 in0.0 mm 0.15 in3.8 mm
09:28 AM 48.0°F8.9°C 46.6°F8.1°C 95% 4.0 mph SSE6.4 kmh SSE 12.1 mph19.5 kmh 29.94 in1013.9 mb 0.02 in0.5 mm 0.04 in1.0 mm 0.15 in3.8 mm
09:13 AM 48.2°F9.0°C 46.8°F8.2°C 95% 4.9 mph SE7.9 kmh SE 14.0 mph22.5 kmh 29.93 in1013.5 mb 0.01 in0.3 mm 0.00 in0.0 mm 0.14 in3.6 mm
08:58 AM 48.4°F9.1°C 46.9°F8.3°C 95% 2.9 mph S4.7 kmh S 12.1 mph19.5 kmh 29.94 in1013.9 mb 0.02 in0.5 mm 0.00 in0.0 mm 0.14 in3.6 mm
08:43 AM 48.4°F9.1°C 46.9°F8.3°C 95% 4.0 mph SSE6.4 kmh SSE 13.0 mph20.9 kmh 29.93 in1013.5 mb 0.04 in1.0 mm 0.00 in0.0 mm 0.14 in3.6 mm
08:28 AM 48.4°F9.1°C 46.9°F8.3°C 95% 4.0 mph S6.4 kmh S 11.0 mph17.7 kmh 29.93 in1013.5 mb 0.04 in1.0 mm 0.04 in1.0 mm 0.13 in3.3 mm
08:13 AM 48.2°F9.0°C 46.8°F8.2°C 95% 4.0 mph SSE6.4 kmh SSE 12.1 mph19.5 kmh 29.94 in1013.9 mb 0.03 in0.8 mm 0.00 in0.0 mm 0.13 in3.3 mm
07:58 AM 48.0°F8.9°C 46.6°F8.1°C 95% 2.9 mph SSE4.7 kmh SSE 10.1 mph16.3 kmh 29.94 in1013.9 mb 0.03 in0.8 mm 0.04 in1.0 mm 0.12 in3.0 mm
07:43 AM 48.2°F9.0°C 46.8°F8.2°C 95% 2.9 mph SSE4.7 kmh SSE 8.9 mph14.3 kmh 29.95 in1014.2 mb 0.02 in0.5 mm 0.04 in1.0 mm 0.10 in2.5 mm
07:28 AM 48.4°F9.1°C 46.9°F8.3°C 95% 2.9 mph S4.7 kmh S 12.1 mph19.5 kmh 29.94 in1013.9 mb 0.01 in0.3 mm 0.00 in0.0 mm 0.09 in2.3 mm
07:13 AM 48.2°F9.0°C 46.8°F8.2°C 95% 2.9 mph E4.7 kmh E 11.0 mph17.7 kmh 29.94 in1013.9 mb 0.01 in0.3 mm 0.01 in0.3 mm 0.09 in2.3 mm
06:58 AM 48.4°F9.1°C 46.9°F8.3°C 95% 2.9 mph SSE4.7 kmh SSE 11.0 mph17.7 kmh 29.94 in1013.9 mb 0.00 in0.0 mm 0.00 in0.0 mm 0.09 in2.3 mm
06:43 AM 48.4°F9.1°C 46.9°F8.3°C 95% 2.9 mph S4.7 kmh S 11.0 mph17.7 kmh 29.94 in1013.9 mb 0.00 in0.0 mm 0.00 in0.0 mm 0.09 in2.3 mm
06:28 AM 48.4°F9.1°C 46.9°F8.3°C 95% 2.9 mph SE4.7 kmh SE 8.9 mph14.3 kmh 29.94 in1013.9 mb 0.01 in0.3 mm 0.00 in0.0 mm 0.09 in2.3 mm
06:13 AM 48.2°F9.0°C 46.8°F8.2°C 95% 2.9 mph SE4.7 kmh SE 9.0 mph14.5 kmh 29.94 in1013.9 mb 0.01 in0.3 mm 0.00 in0.0 mm 0.09 in2.3 mm
05:58 AM 48.2°F9.0°C 46.8°F8.2°C 95% 2.0 mph SE3.2 kmh SE 10.1 mph16.3 kmh 29.94 in1013.9 mb 0.01 in0.3 mm 0.00 in0.0 mm 0.09 in2.3 mm
05:43 AM 48.0°F8.9°C 46.6°F8.1°C 95% 2.9 mph SE4.7 kmh SE 9.0 mph14.5 kmh 29.94 in1013.9 mb 0.02 in0.5 mm 0.00 in0.0 mm 0.09 in2.3 mm
05:28 AM 48.0°F8.9°C 46.6°F8.1°C 95% 2.9 mph SSE4.7 kmh SSE 8.9 mph14.3 kmh 29.94 in1013.9 mb 0.02 in0.5 mm 0.00 in0.0 mm 0.08 in2.0 mm
05:13 AM 48.0°F8.9°C 46.4°F8.0°C 94% 2.9 mph S4.7 kmh S 11.0 mph17.7 kmh 29.95 in1014.2 mb 0.02 in0.5 mm 0.00 in0.0 mm 0.08 in2.0 mm
04:58 AM 47.8°F8.8°C 46.2°F7.9°C 94% 2.0 mph S3.2 kmh S 8.1 mph13.0 kmh 29.96 in1014.6 mb 0.04 in1.0 mm 0.00 in0.0 mm 0.08 in2.0 mm
04:43 AM 47.8°F8.8°C 46.2°F7.9°C 94% 2.9 mph SE4.7 kmh SE 12.0 mph19.3 kmh 29.95 in1014.2 mb 0.04 in1.0 mm 0.00 in0.0 mm 0.07 in1.8 mm
04:28 AM 47.8°F8.8°C 46.2°F7.9°C 94% 4.0 mph SSE6.4 kmh SSE 11.0 mph17.7 kmh 29.96 in1014.6 mb 0.04 in1.0 mm 0.00 in0.0 mm 0.06 in1.5 mm
04:13 AM 47.8°F8.8°C 46.2°F7.9°C 94% 4.0 mph S6.4 kmh S 12.0 mph19.3 kmh 29.96 in1014.6 mb 0.04 in1.0 mm 0.03 in0.8 mm 0.06 in1.5 mm
03:58 AM 47.8°F8.8°C 46.2°F7.9°C 94% 4.0 mph S6.4 kmh S 11.0 mph17.7 kmh 29.96 in1014.6 mb 0.02 in0.5 mm 0.00 in0.0 mm 0.04 in1.0 mm
03:43 AM 47.7°F8.7°C 45.7°F7.6°C 93% 4.0 mph SE6.4 kmh SE 14.1 mph22.7 kmh 29.96 in1014.6 mb 0.02 in0.5 mm 0.04 in1.0 mm 0.03 in0.8 mm
03:28 AM 47.8°F8.8°C 45.9°F7.7°C 93% 2.9 mph S4.7 kmh S 11.0 mph17.7 kmh 29.96 in1014.6 mb 0.01 in0.3 mm 0.04 in1.0 mm 0.02 in0.5 mm
03:13 AM 47.8°F8.8°C 45.7°F7.6°C 92% 2.9 mph SSE4.7 kmh SSE 12.1 mph19.5 kmh 29.96 in1014.6 mb 0.00 in0.0 mm 0.00 in0.0 mm 0.02 in0.5 mm
02:58 AM 47.8°F8.8°C 45.7°F7.6°C 92% 4.9 mph SSE7.9 kmh SSE 13.0 mph20.9 kmh 29.96 in1014.6 mb 0.00 in0.0 mm 0.00 in0.0 mm 0.02 in0.5 mm
02:43 AM 47.8°F8.8°C 45.7°F7.6°C 92% 4.9 mph S7.9 kmh S 14.1 mph22.7 kmh 29.96 in1014.6 mb 0.00 in0.0 mm 0.00 in0.0 mm 0.02 in0.5 mm
02:28 AM 47.7°F8.7°C 45.5°F7.5°C 92% 4.0 mph S6.4 kmh S 12.1 mph19.5 kmh 29.96 in1014.6 mb 0.00 in0.0 mm 0.00 in0.0 mm 0.02 in0.5 mm
02:13 AM 47.5°F8.6°C 45.5°F7.5°C 93% 4.9 mph S7.9 kmh S 13.0 mph20.9 kmh 29.96 in1014.6 mb 0.01 in0.3 mm 0.00 in0.0 mm 0.02 in0.5 mm
01:58 AM 47.1°F8.4°C 45.1°F7.3°C 93% 4.9 mph S7.9 kmh S 16.0 mph25.7 kmh 29.96 in1014.6 mb 0.01 in0.3 mm 0.00 in0.0 mm 0.02 in0.5 mm
01:43 AM 47.3°F8.5°C 45.3°F7.4°C 93% 4.0 mph S6.4 kmh S 14.1 mph22.7 kmh 29.95 in1014.2 mb 0.01 in0.3 mm 0.00 in0.0 mm 0.02 in0.5 mm
01:28 AM 47.3°F8.5°C 45.3°F7.4°C 93% 4.9 mph S7.9 kmh S 13.0 mph20.9 kmh 29.96 in1014.6 mb 0.02 in0.5 mm 0.04 in1.0 mm 0.02 in0.5 mm
01:13 AM 47.5°F8.6°C 45.5°F7.5°C 93% 4.9 mph SSE7.9 kmh SSE 21.0 mph33.8 kmh 29.96 in1014.6 mb 0.01 in0.3 mm 0.00 in0.0 mm 0.01 in0.3 mm
12:58 AM 47.3°F8.5°C 45.3°F7.4°C 93% 4.9 mph SE7.9 kmh SE 18.0 mph29.0 kmh 29.96 in1014.6 mb 0.01 in0.3 mm 0.00 in0.0 mm 0.01 in0.3 mm
12:43 AM 47.3°F8.5°C 45.3°F7.4°C 93% 4.0 mph SSE6.4 kmh SSE 13.0 mph20.9 kmh 29.96 in1014.6 mb 0.02 in0.5 mm 0.04 in1.0 mm 0.01 in0.3 mm
12:28 AM 47.5°F8.6°C 45.5°F7.5°C 93% 4.9 mph SE7.9 kmh SE 13.0 mph20.9 kmh 29.96 in1014.6 mb 0.01 in0.3 mm 0.00 in0.0 mm 0.01 in0.3 mm
12:13 AM 47.7°F8.7°C 45.5°F7.5°C 92% 4.9 mph S7.9 kmh S 15.0 mph24.1 kmh 29.96 in1014.6 mb 0.01 in0.3 mm 0.05 in1.3 mm 0.01 in0.3 mm